Legionowo, Poland

12:02 AM CET on February 06, 2016 (GMT +0100)
JABLONNA | | Change Station
CLOSE
Current Station
Personal Weather Station
Location: JABLONNA, LEGIONOWO
Elevation: 246 ft
Nearby Weather Stations

Elev 246 ft 52.38 °N, 20.92 °E | Updated 2 minutes ago

Mostly Cloudy
Mostly Cloudy
35.4 °F
Feels Like 35 °F
N
0.0
Wind Variable Wind from SSW
Gusts 0.0 mph

Today
High -- | Low -- °F
--% Chance of Precip.
Yesterday
High -- | Low -- °F
Precip. -- in
Pressure 30.18 in
Visibility 6.2 miles
Clouds Mostly Cloudy 4800 ft
Windchill 35 °F
Dew Point 30 °F
Humidity 81%
Rainfall in
Snow Depth Not available.
7:10 AM 4:30 PM
Waning Crescent, 9% visible
METAR EPMO 052300Z 23008KT 9999 BKN048 01/M01 Q1022
Pressure 30.18 in
Visibility 6.2 miles
Clouds Mostly Cloudy 4800 ft
Windchill 35 °F
Dew Point 30 °F
Humidity 81%
Rainfall in
Snow Depth Not available.
7:10 AM 4:30 PM
Waning Crescent, 9% visible
METAR EPMO 052300Z 23008KT 9999 BKN048 01/M01 Q1022

10-Day Weather Forecast

Almanac

Astronomy

Feb. 06, 2016 Rise Set
Actual Time
Civil Twilight
Nautical Twilight
Astronomical Twilight
Moon
Length of Visible Light
Length of Day
Tomorrow will be .
, % of the Moon is Illuminated

Today's Extremes

Country Highs Country Lows

Community

WunderPhotos

Upload Photos

1,890,879 photos uploaded!

WunderBlog® & News

Nearby

Air Quality

  Air Quality AQ Index Pollutant
Not available.

Snow Depth

Station Depth Elevation

Earthquake Activity

City Distance Mag. Time & Date
Minimum magnitude displayed is 2.5.

Coastal Water Temperatures

Place Temperature

Stations

Nearby Weather Stations

Station Location Temp. Windchill Dew Point Humidity Wind Precip. Elev Updated Type